Αρχική σελίδα
METAR-TAF:

METAR-TAF

Αεροδρόμια :

Καράκας, Βενεζουέλα

γεωγραφικό πλάτος: 10-36N, γεωγραφικό μήκος: 066-59W, υψόμετρο: 43 μ

Παρών καιρός

Η αναφορά έγινε 44 λεπτά πριν, στις 00:00 UTC
Άνεμος 3 kt από Α/NA
Θερμοκρασία 26°C
Υγρασία 79%
Πίεση 1011 hPa
Ορατότητα 10 χλμ και άνω
Αρκετά νέφη σε ύψος 1600 πόδια

METAR: SVMI 120000Z 11003KT 9999 BKN016 26/22 Q1011

Χρόνος: 20:44 (00:44 UTC)

Πρόγνωση Καιρού

Η αναφορά έγινε 2 ώρες και 44 λεπτά πριν, στις 22:00 UTC
Η πρόγνωση ισχύει από τις 12 στις 00 UTC έως τις 13 στις 00 UTC
Άνεμος 12 kt από Α
Ορατότητα 10 χλμ και άνω
Διάσπαρτα νέφη σε ύψος 1600 πόδια
Καθιστάμενος
από 12 στις 01 UTC έως τις 12 στις 07 UTC
Άνεμος 10 kt από Α

TAF: SVMI 112200Z 1200/1300 09012KT 9999 SCT016 TX33/18Z TN23/07Z BECMG 1201/1207 09010KT

Μετεωρολογικές αναφορές και προγνώσεις για περισσότερα από 4000 αεροδρόμια (δελτία METAR και TAF).

Οι διαθέσιμοι σταθμοί απεικονίζονται στο χάρτη με κίτρινες και κόκκινες κουκκίδες.

Μετακινήστε το ποντίκι πάνω από τις κουκκίδες για να δείτε το όνομα του σταθμού.

Στη συνέχεια, κάντε κλικ για να δείτε τις μετεωρολογικές αναφορές και τις προγνώσεις καιρού.

Για να αλλάξετε το χάρτη: κάντε κλικ στα πράσινα κουμπιά με τον μαύρο σταυρό για να ζουμάρετε, στο πράσινο κουμπί με την παύλα για να αφαιρέσετε το ζουμ ή στα πράσινα βέλη για να αντιπαραβάλλετε χάρτες.


METAR-TAF: